createdAt,value
2023-08-17T00:03:19.674Z,963.43
2023-08-17T00:08:21.454Z,963.34
2023-08-17T00:13:23.334Z,963.29
2023-08-17T00:18:25.098Z,963.33
2023-08-17T00:23:26.295Z,963.3
2023-08-17T00:28:27.519Z,963.29
2023-08-17T00:33:28.755Z,963.38
2023-08-17T00:38:30.351Z,963.44
2023-08-17T00:43:31.877Z,963.41
2023-08-17T00:48:33.573Z,963.4
2023-08-17T00:53:35.648Z,963.48
2023-08-17T00:58:37.678Z,963.48
2023-08-17T01:03:39.171Z,963.41
2023-08-17T01:08:41.355Z,963.4
2023-08-17T01:13:42.661Z,963.47
2023-08-17T01:18:44.253Z,963.42
2023-08-17T01:23:46.183Z,963.41
2023-08-17T01:28:47.693Z,963.37
2023-08-17T01:33:49.646Z,963.43
2023-08-17T01:38:51.756Z,963.51
2023-08-17T01:43:53.841Z,963.34
2023-08-17T01:48:55.134Z,963.3
2023-08-17T01:53:56.972Z,963.24
2023-08-17T01:58:58.385Z,963.28
2023-08-17T02:03:59.595Z,963.32
2023-08-17T02:09:00.834Z,963.28
2023-08-17T02:14:02.563Z,963.22
2023-08-17T02:19:04.510Z,963.16
2023-08-17T02:24:05.776Z,963.04
2023-08-17T02:29:07.844Z,963.03
2023-08-17T02:34:09.354Z,963.08
2023-08-17T02:39:10.776Z,963.06
2023-08-17T02:44:12.067Z,963.05
2023-08-17T02:49:13.804Z,963.06
2023-08-17T02:54:15.243Z,963.15
2023-08-17T02:59:16.868Z,963.14
2023-08-17T03:04:18.087Z,963.11
2023-08-17T03:09:20.010Z,963.05
2023-08-17T03:14:22.096Z,963
2023-08-17T03:19:23.915Z,963.04
2023-08-17T03:24:25.728Z,963.07
2023-08-17T03:29:27.196Z,963.16
2023-08-17T03:34:29.091Z,963.21
2023-08-17T03:39:30.992Z,963.22
2023-08-17T03:44:33.033Z,963.28
2023-08-17T03:49:34.616Z,963.28
2023-08-17T03:54:35.854Z,963.38
2023-08-17T03:59:37.474Z,963.25
2023-08-17T04:04:39.517Z,963.28
2023-08-17T04:09:41.563Z,963.33
2023-08-17T04:14:43.083Z,963.42
2023-08-17T04:19:45.190Z,963.38
2023-08-17T04:24:47.236Z,963.44
2023-08-17T04:29:48.675Z,963.51
2023-08-17T04:34:51.442Z,963.5
2023-08-17T04:39:52.460Z,963.5
2023-08-17T04:44:53.734Z,963.45
2023-08-17T04:49:55.456Z,963.48
2023-08-17T04:54:57.181Z,963.48
2023-08-17T04:59:58.968Z,963.57
2023-08-17T05:05:00.852Z,963.61
2023-08-17T05:10:02.312Z,963.67
2023-08-17T05:15:03.696Z,963.71
2023-08-17T05:20:05.602Z,963.66
2023-08-17T05:25:07.475Z,963.69
2023-08-17T05:30:09.282Z,963.63
2023-08-17T05:35:11.063Z,963.62
2023-08-17T05:40:12.651Z,963.57
2023-08-17T05:45:14.041Z,963.65
2023-08-17T05:50:15.250Z,963.62
2023-08-17T05:55:16.508Z,963.6
2023-08-17T06:00:18.529Z,963.65
2023-08-17T06:10:21.614Z,963.69
2023-08-17T07:10:42.270Z,963.89
2023-08-17T07:20:45.344Z,963.96
2023-08-17T07:40:51.910Z,963.96
2023-08-17T09:11:21.069Z,963.76
2023-08-17T09:16:25.289Z,963.75
2023-08-17T09:21:24.317Z,963.75
2023-08-17T09:26:26.230Z,963.69
2023-08-17T09:31:28.283Z,963.61
2023-08-17T09:36:29.556Z,963.63
2023-08-17T09:41:31.281Z,963.65
2023-08-17T09:46:32.819Z,963.65
2023-08-17T09:51:34.112Z,963.65
2023-08-17T09:56:35.384Z,963.58
2023-08-17T10:01:37.622Z,963.59
2023-08-17T10:06:39.428Z,963.62
2023-08-17T10:11:40.811Z,963.57
2023-08-17T10:16:42.102Z,963.55
2023-08-17T10:21:43.430Z,963.54
2023-08-17T10:26:44.749Z,963.52
2023-08-17T10:31:46.703Z,963.46
2023-08-17T10:36:48.680Z,963.51
2023-08-17T10:41:50.339Z,963.47
2023-08-17T10:46:51.847Z,963.46
2023-08-17T10:51:53.986Z,963.46
2023-08-17T10:56:55.993Z,963.46
2023-08-17T11:01:57.459Z,963.49
2023-08-17T11:06:59.244Z,963.43
2023-08-17T11:12:00.622Z,963.42
2023-08-17T11:17:06.208Z,963.37
2023-08-17T11:22:03.730Z,963.33
2023-08-17T11:27:05.308Z,963.32
2023-08-17T11:32:06.739Z,963.3
2023-08-17T11:37:08.076Z,963.22
2023-08-17T11:42:09.330Z,963.2
2023-08-17T11:47:10.577Z,963.18
2023-08-17T11:52:12.530Z,963.13
2023-08-17T11:57:13.783Z,963.06
2023-08-17T12:02:15.726Z,963.05
2023-08-17T12:07:17.169Z,962.97
2023-08-17T12:12:19.001Z,962.95
2023-08-17T12:17:20.310Z,962.96
2023-08-17T12:22:22.391Z,962.91
2023-08-17T12:27:24.259Z,962.78
2023-08-17T12:32:26.295Z,962.73
2023-08-17T12:37:27.743Z,962.59
2023-08-17T12:42:29.488Z,962.57
2023-08-17T12:47:34.463Z,962.5
2023-08-17T12:52:33.106Z,962.41
2023-08-17T12:57:35.222Z,962.49
2023-08-17T13:02:37.262Z,962.44
2023-08-17T13:07:38.388Z,962.37
2023-08-17T13:12:40.535Z,962.35
2023-08-17T13:17:42.546Z,962.33
2023-08-17T13:22:44.016Z,962.31
2023-08-17T13:27:46.131Z,962.35
2023-08-17T13:32:47.565Z,962.27
2023-08-17T13:37:49.110Z,962.18
2023-08-17T13:42:50.336Z,962.19
2023-08-17T13:47:52.387Z,962.15
2023-08-17T13:52:54.003Z,962.22
2023-08-17T13:57:58.400Z,962.2
2023-08-17T14:02:57.563Z,962.1
2023-08-17T14:07:58.893Z,962.06
2023-08-17T14:13:00.125Z,961.92
2023-08-17T14:18:02.264Z,961.87
2023-08-17T14:23:04.107Z,961.73
2023-08-17T14:28:05.560Z,961.69
2023-08-17T14:33:07.022Z,961.68
2023-08-17T14:38:08.471Z,961.68
2023-08-17T14:43:10.354Z,961.6
2023-08-17T14:48:12.180Z,961.58
2023-08-17T14:53:14.039Z,961.62
2023-08-17T14:58:16.146Z,961.6
2023-08-17T15:03:24.292Z,961.64
2023-08-17T15:08:19.226Z,961.64
2023-08-17T15:13:21.027Z,961.69
2023-08-17T15:18:24.625Z,961.88
2023-08-17T15:23:24.979Z,962.01
2023-08-17T15:28:32.583Z,962.05
2023-08-17T15:33:34.467Z,962.07
2023-08-17T15:38:35.711Z,962.21
2023-08-17T15:43:36.876Z,962.24
2023-08-17T15:48:38.988Z,962.21
2023-08-17T15:53:40.265Z,962.1
2023-08-17T15:58:42.358Z,961.99
2023-08-17T16:03:44.488Z,961.94
2023-08-17T16:08:49.540Z,961.97
2023-08-17T16:13:48.480Z,961.98
2023-08-17T16:18:50.651Z,962.06
2023-08-17T16:23:52.792Z,962.01
2023-08-17T16:28:54.498Z,962.14
2023-08-17T16:33:55.934Z,962.51
2023-08-17T16:38:57.849Z,962.66
2023-08-17T16:44:05.444Z,962.81
2023-08-17T16:49:01.827Z,962.8
2023-08-17T16:54:02.985Z,962.99
2023-08-17T16:59:05.099Z,963
2023-08-17T17:04:06.517Z,963.02
2023-08-17T17:09:08.294Z,963.21
2023-08-17T17:14:10.288Z,963.31
2023-08-17T17:19:12.381Z,963.5
2023-08-17T17:24:14.339Z,963.77
2023-08-17T17:29:16.020Z,963.77
2023-08-17T17:34:18.101Z,963.79
2023-08-17T17:39:19.993Z,963.8
2023-08-17T17:44:21.380Z,963.81
2023-08-17T17:49:22.849Z,963.89
2023-08-17T17:54:24.486Z,964.24
2023-08-17T17:59:26.463Z,964.57
2023-08-17T18:04:28.390Z,965.08
2023-08-17T18:09:30.388Z,965.01
2023-08-17T18:14:32.300Z,964.84
2023-08-17T18:19:34.038Z,964.79
2023-08-17T18:24:35.790Z,964.84
2023-08-17T18:29:37.705Z,964.82
2023-08-17T18:34:39.412Z,965.03
2023-08-17T18:39:41.417Z,965.14
2023-08-17T18:44:42.987Z,965.25
2023-08-17T18:49:44.513Z,965.29
2023-08-17T18:54:46.462Z,965.29
2023-08-17T18:59:48.237Z,965.25
2023-08-17T19:04:49.630Z,965.09
2023-08-17T19:09:51.019Z,965.21
2023-08-17T19:14:52.579Z,965.21
2023-08-17T19:19:54.017Z,965.24
2023-08-17T19:24:56.113Z,965.14
2023-08-17T19:29:58.048Z,965.14
2023-08-17T19:34:59.516Z,965.09
2023-08-17T19:40:01.514Z,965.01
2023-08-17T19:45:03.305Z,965.03
2023-08-17T19:50:05.441Z,964.98
2023-08-17T19:55:06.758Z,965.06
2023-08-17T20:00:08.481Z,965.04
2023-08-17T20:05:10.639Z,965.05
2023-08-17T20:10:12.662Z,965.11
2023-08-17T20:15:14.064Z,965.1
2023-08-17T20:20:15.989Z,965.06
2023-08-17T20:25:17.724Z,964.97
2023-08-17T21:40:42.590Z,965.33
2023-08-17T22:05:51.272Z,965
2023-08-17T22:31:00.146Z,965.11
2023-08-17T22:36:02.041Z,965.1
2023-08-17T23:26:19.652Z,964.75
2023-08-17T23:31:21.198Z,964.72
2023-08-17T23:36:23.157Z,964.66
2023-08-17T23:41:24.618Z,964.53
2023-08-17T23:46:25.811Z,964.43
2023-08-17T23:51:27.486Z,964.4
2023-08-17T23:56:28.774Z,964.35
